Grey Goose — 2HFX6 — position and weather

sailwx.info

Track history (hours):
 
Tides and Currents Weather Stations Pressure Air Temp Water Temp Dewpoint Dewpoint Depression Visibility Wind Speed Wind Dir Waves Ship Positions

Grey Goose

Last reported at 2018-Jan-20 12:49 UTC. Time now 2018-Feb-18 19:41 UTC.
Position N 16°60' W 061°56'.
Warning: this ship's position is 29 days out of date.

Length 13 m.

Type: Sailing vessel. MMSI: 235103337.

Date/timePositionNaut miles runAvg speedWind from/ knotsBaromVisibWave heightAir tempDewpointWater temp
2018-Jan-20 12:49N 16°60' W 061°56'4 7.1
2018-Jan-20 12:19N 16°60' W 061°52'2 7.0
2018-Jan-20 12:00N 16°60' W 061°50'3 6.2
2018-Jan-20 11:30N 17°01' W 061°47'0 0.0
2018-Jan-19 21:12N 17°01' W 061°47'0 0.0
2018-Jan-18 17:48N 17°01' W 061°47'0 0.0
2018-Jan-18 17:30N 17°01' W 061°47'  
2018-Jan-11 19:24N 14°28' W 060°53'0 0.0
2018-Jan-11 16:08N 14°28' W 060°53'0 0.0
2018-Jan-11 15:53N 14°28' W 060°53'0 0.0
2018-Jan-11 15:26N 14°28' W 060°53'0 0.5
2018-Jan-11 14:32N 14°28' W 060°52'0 3.3
2018-Jan-11 14:26N 14°28' W 060°52'2 3.8
2018-Jan-11 13:57N 14°26' W 060°53'0 0.2
2018-Jan-11 12:03N 14°26' W 060°53'0 0.1
2018-Jan-11 11:54N 14°26' W 060°53'0 0.0
2018-Jan-10 14:09N 14°26' W 060°53'0 0.0
2018-Jan-10 14:00N 14°26' W 060°53'0 0.0
2018-Jan-10 13:30N 14°26' W 060°53'  
Track history (hours):
 
Tides and Currents Weather Stations Pressure Air Temp Water Temp Dewpoint Dewpoint Depression Visibility Wind Speed Wind Dir Waves Ship Positions

Grey Goose

Last reported at 2018-Jan-20 12:49 UTC. Time now 2018-Feb-18 19:41 UTC.
Position N 16°60' W 061°56'.
Warning: this ship's position is 29 days out of date.

Length 13 m.

Type: Sailing vessel. MMSI: 235103337.

Date/timePositionNaut miles runAvg speedWind from/ knotsBaromVisibWave heightAir tempDewpointWater temp
2018-Jan-20 12:49N 16°60' W 061°56'4 7.1
2018-Jan-20 12:19N 16°60' W 061°52'2 7.0
2018-Jan-20 12:00N 16°60' W 061°50'3 6.2
2018-Jan-20 11:30N 17°01' W 061°47'0 0.0
2018-Jan-19 21:12N 17°01' W 061°47'0 0.0
2018-Jan-18 17:48N 17°01' W 061°47'0 0.0
2018-Jan-18 17:30N 17°01' W 061°47'  
2018-Jan-11 19:24N 14°28' W 060°53'0 0.0
2018-Jan-11 16:08N 14°28' W 060°53'0 0.0
2018-Jan-11 15:53N 14°28' W 060°53'0 0.0
2018-Jan-11 15:26N 14°28' W 060°53'0 0.5
2018-Jan-11 14:32N 14°28' W 060°52'0 3.3
2018-Jan-11 14:26N 14°28' W 060°52'2 3.8
2018-Jan-11 13:57N 14°26' W 060°53'0 0.2
2018-Jan-11 12:03N 14°26' W 060°53'0 0.1
2018-Jan-11 11:54N 14°26' W 060°53'0 0.0
2018-Jan-10 14:09N 14°26' W 060°53'0 0.0
2018-Jan-10 14:00N 14°26' W 060°53'0 0.0
2018-Jan-10 13:30N 14°26' W 060°53'  

Dump ship's entire track history